sensor_id;sensor_type;location;lat;lon;timestamp;temperature;humidity
54178;DHT22;40085;53.004;6.770;2022-08-19T00:02:05;15.70;99.90
54178;DHT22;40085;53.004;6.770;2022-08-19T00:04:33;15.80;99.90
54178;DHT22;40085;53.004;6.770;2022-08-19T00:07:03;15.80;99.90
54178;DHT22;40085;53.004;6.770;2022-08-19T00:09:29;15.60;99.90
54178;DHT22;40085;53.004;6.770;2022-08-19T00:11:56;15.70;99.90
54178;DHT22;40085;53.004;6.770;2022-08-19T00:14:25;15.70;99.90
54178;DHT22;40085;53.004;6.770;2022-08-19T00:16:52;15.70;99.90
54178;DHT22;40085;53.004;6.770;2022-08-19T00:19:20;15.70;99.90
54178;DHT22;40085;53.004;6.770;2022-08-19T00:21:46;15.80;99.90
54178;DHT22;40085;53.004;6.770;2022-08-19T00:24:13;15.70;99.90
54178;DHT22;40085;53.004;6.770;2022-08-19T00:26:41;15.40;99.90
54178;DHT22;40085;53.004;6.770;2022-08-19T00:29:08;15.60;99.90
54178;DHT22;40085;53.004;6.770;2022-08-19T00:31:34;15.50;99.90
54178;DHT22;40085;53.004;6.770;2022-08-19T00:34:01;15.60;99.90
54178;DHT22;40085;53.004;6.770;2022-08-19T00:36:28;15.50;99.90
54178;DHT22;40085;53.004;6.770;2022-08-19T00:38:54;15.60;99.90
54178;DHT22;40085;53.004;6.770;2022-08-19T00:41:21;15.40;99.90
54178;DHT22;40085;53.004;6.770;2022-08-19T00:44:05;15.50;99.90
54178;DHT22;40085;53.004;6.770;2022-08-19T00:46:33;15.40;99.90
54178;DHT22;40085;53.004;6.770;2022-08-19T00:49:00;15.40;99.90
54178;DHT22;40085;53.004;6.770;2022-08-19T00:51:29;15.40;99.90
54178;DHT22;40085;53.004;6.770;2022-08-19T00:53:57;15.40;99.90
54178;DHT22;40085;53.004;6.770;2022-08-19T00:56:24;15.40;99.90
54178;DHT22;40085;53.004;6.770;2022-08-19T00:58:54;15.30;99.90
54178;DHT22;40085;53.004;6.770;2022-08-19T01:01:20;15.50;99.90
54178;DHT22;40085;53.004;6.770;2022-08-19T01:03:46;15.30;99.90
54178;DHT22;40085;53.004;6.770;2022-08-19T01:06:12;15.30;99.90
54178;DHT22;40085;53.004;6.770;2022-08-19T01:08:38;15.30;99.90
54178;DHT22;40085;53.004;6.770;2022-08-19T01:11:04;15.10;99.90
54178;DHT22;40085;53.004;6.770;2022-08-19T01:13:32;15.00;99.90
54178;DHT22;40085;53.004;6.770;2022-08-19T01:16:05;15.10;99.90
54178;DHT22;40085;53.004;6.770;2022-08-19T01:18:32;15.10;99.90
54178;DHT22;40085;53.004;6.770;2022-08-19T01:21:16;15.00;99.90
54178;DHT22;40085;53.004;6.770;2022-08-19T01:23:44;15.10;99.90
54178;DHT22;40085;53.004;6.770;2022-08-19T01:26:13;15.00;99.90
54178;DHT22;40085;53.004;6.770;2022-08-19T01:28:40;15.00;99.90
54178;DHT22;40085;53.004;6.770;2022-08-19T01:31:08;15.10;99.90
54178;DHT22;40085;53.004;6.770;2022-08-19T01:33:37;15.10;99.90
54178;DHT22;40085;53.004;6.770;2022-08-19T01:36:05;15.10;99.90
54178;DHT22;40085;53.004;6.770;2022-08-19T01:38:36;15.10;99.90
54178;DHT22;40085;53.004;6.770;2022-08-19T01:41:02;15.10;99.90
54178;DHT22;40085;53.004;6.770;2022-08-19T01:43:28;15.10;99.90
54178;DHT22;40085;53.004;6.770;2022-08-19T01:45:54;15.10;99.90
54178;DHT22;40085;53.004;6.770;2022-08-19T01:48:19;15.10;99.90
54178;DHT22;40085;53.004;6.770;2022-08-19T01:50:45;15.00;99.90
54178;DHT22;40085;53.004;6.770;2022-08-19T01:53:13;15.00;99.90
54178;DHT22;40085;53.004;6.770;2022-08-19T01:55:41;15.00;99.90
54178;DHT22;40085;53.004;6.770;2022-08-19T01:58:14;15.00;99.90
54178;DHT22;40085;53.004;6.770;2022-08-19T02:00:42;15.00;99.90
54178;DHT22;40085;53.004;6.770;2022-08-19T02:03:09;15.00;99.90
54178;DHT22;40085;53.004;6.770;2022-08-19T02:05:37;14.90;99.90
54178;DHT22;40085;53.004;6.770;2022-08-19T02:08:03;14.90;99.90
54178;DHT22;40085;53.004;6.770;2022-08-19T02:10:29;14.90;99.90
54178;DHT22;40085;53.004;6.770;2022-08-19T02:12:55;14.90;99.90
54178;DHT22;40085;53.004;6.770;2022-08-19T02:15:21;14.90;99.90
54178;DHT22;40085;53.004;6.770;2022-08-19T02:17:47;14.90;99.90
54178;DHT22;40085;53.004;6.770;2022-08-19T02:20:14;14.90;99.90
54178;DHT22;40085;53.004;6.770;2022-08-19T02:22:41;14.90;99.90
54178;DHT22;40085;53.004;6.770;2022-08-19T02:25:12;14.90;99.90
54178;DHT22;40085;53.004;6.770;2022-08-19T02:27:39;14.90;99.90
54178;DHT22;40085;53.004;6.770;2022-08-19T02:30:06;14.90;99.90
54178;DHT22;40085;53.004;6.770;2022-08-19T02:32:32;14.90;99.90
54178;DHT22;40085;53.004;6.770;2022-08-19T02:34:58;14.90;99.90
54178;DHT22;40085;53.004;6.770;2022-08-19T02:37:24;14.90;99.90
54178;DHT22;40085;53.004;6.770;2022-08-19T02:40:08;14.90;99.90
54178;DHT22;40085;53.004;6.770;2022-08-19T02:42:34;14.90;99.90
54178;DHT22;40085;53.004;6.770;2022-08-19T02:45:00;15.00;99.90
54178;DHT22;40085;53.004;6.770;2022-08-19T02:47:26;14.90;99.90
54178;DHT22;40085;53.004;6.770;2022-08-19T02:49:52;14.90;99.90
54178;DHT22;40085;53.004;6.770;2022-08-19T02:52:17;14.90;99.90
54178;DHT22;40085;53.004;6.770;2022-08-19T02:54:43;14.90;99.90
54178;DHT22;40085;53.004;6.770;2022-08-19T02:57:10;14.80;99.90
54178;DHT22;40085;53.004;6.770;2022-08-19T02:59:35;14.90;99.90
54178;DHT22;40085;53.004;6.770;2022-08-19T03:02:01;14.90;99.90
54178;DHT22;40085;53.004;6.770;2022-08-19T03:04:27;14.90;99.90
54178;DHT22;40085;53.004;6.770;2022-08-19T03:06:52;14.90;99.90
54178;DHT22;40085;53.004;6.770;2022-08-19T03:09:20;14.80;99.90
54178;DHT22;40085;53.004;6.770;2022-08-19T03:11:46;14.80;99.90
54178;DHT22;40085;53.004;6.770;2022-08-19T03:14:12;14.80;99.90
54178;DHT22;40085;53.004;6.770;2022-08-19T03:16:44;14.80;99.90
54178;DHT22;40085;53.004;6.770;2022-08-19T03:19:11;14.80;99.90
54178;DHT22;40085;53.004;6.770;2022-08-19T03:21:37;14.80;99.90
54178;DHT22;40085;53.004;6.770;2022-08-19T03:24:06;14.70;99.90
54178;DHT22;40085;53.004;6.770;2022-08-19T03:26:32;14.70;99.90
54178;DHT22;40085;53.004;6.770;2022-08-19T03:29:02;14.80;99.90
54178;DHT22;40085;53.004;6.770;2022-08-19T03:31:28;14.70;99.90
54178;DHT22;40085;53.004;6.770;2022-08-19T03:33:54;15.10;99.90
54178;DHT22;40085;53.004;6.770;2022-08-19T03:36:22;14.70;99.90
54178;DHT22;40085;53.004;6.770;2022-08-19T03:38:50;14.70;99.90
54178;DHT22;40085;53.004;6.770;2022-08-19T03:41:25;14.70;99.90
54178;DHT22;40085;53.004;6.770;2022-08-19T03:43:52;14.90;99.90
54178;DHT22;40085;53.004;6.770;2022-08-19T03:46:25;14.80;99.90
54178;DHT22;40085;53.004;6.770;2022-08-19T03:48:53;14.80;99.90
54178;DHT22;40085;53.004;6.770;2022-08-19T03:51:27;14.90;99.90
54178;DHT22;40085;53.004;6.770;2022-08-19T03:53:54;14.70;99.90
54178;DHT22;40085;53.004;6.770;2022-08-19T03:56:21;14.80;99.90
54178;DHT22;40085;53.004;6.770;2022-08-19T03:58:47;14.80;99.90
54178;DHT22;40085;53.004;6.770;2022-08-19T04:01:19;15.00;99.90
54178;DHT22;40085;53.004;6.770;2022-08-19T04:03:46;14.90;99.90
54178;DHT22;40085;53.004;6.770;2022-08-19T04:06:33;14.80;99.90
54178;DHT22;40085;53.004;6.770;2022-08-19T04:09:03;14.80;99.90
54178;DHT22;40085;53.004;6.770;2022-08-19T04:11:39;14.80;99.90
54178;DHT22;40085;53.004;6.770;2022-08-19T04:14:09;14.90;99.90
54178;DHT22;40085;53.004;6.770;2022-08-19T04:16:35;14.90;99.90
54178;DHT22;40085;53.004;6.770;2022-08-19T04:19:03;14.80;99.90
54178;DHT22;40085;53.004;6.770;2022-08-19T04:21:29;14.80;99.90
54178;DHT22;40085;53.004;6.770;2022-08-19T04:23:56;14.90;99.90
54178;DHT22;40085;53.004;6.770;2022-08-19T04:26:31;15.10;99.90
54178;DHT22;40085;53.004;6.770;2022-08-19T04:29:03;14.80;99.90
54178;DHT22;40085;53.004;6.770;2022-08-19T04:31:32;14.90;99.90
54178;DHT22;40085;53.004;6.770;2022-08-19T04:34:03;14.90;99.90
54178;DHT22;40085;53.004;6.770;2022-08-19T04:36:31;14.90;99.90
54178;DHT22;40085;53.004;6.770;2022-08-19T04:38:59;15.00;99.90
54178;DHT22;40085;53.004;6.770;2022-08-19T04:41:25;14.90;99.90
54178;DHT22;40085;53.004;6.770;2022-08-19T04:44:10;14.90;99.90
54178;DHT22;40085;53.004;6.770;2022-08-19T04:46:37;14.90;99.90
54178;DHT22;40085;53.004;6.770;2022-08-19T04:49:05;14.90;99.90
54178;DHT22;40085;53.004;6.770;2022-08-19T04:51:32;14.90;99.90
54178;DHT22;40085;53.004;6.770;2022-08-19T04:54:00;14.90;99.90
54178;DHT22;40085;53.004;6.770;2022-08-19T04:56:27;15.00;99.90
54178;DHT22;40085;53.004;6.770;2022-08-19T04:58:55;15.00;99.90
54178;DHT22;40085;53.004;6.770;2022-08-19T05:01:24;15.10;99.90
54178;DHT22;40085;53.004;6.770;2022-08-19T05:03:51;15.10;99.90
54178;DHT22;40085;53.004;6.770;2022-08-19T05:06:20;15.10;99.90
54178;DHT22;40085;53.004;6.770;2022-08-19T05:08:46;15.10;99.90
54178;DHT22;40085;53.004;6.770;2022-08-19T05:11:20;15.20;99.90
54178;DHT22;40085;53.004;6.770;2022-08-19T05:13:47;15.20;99.90
54178;DHT22;40085;53.004;6.770;2022-08-19T05:16:15;15.30;99.90
54178;DHT22;40085;53.004;6.770;2022-08-19T05:18:43;15.30;99.90
54178;DHT22;40085;53.004;6.770;2022-08-19T05:21:28;15.30;99.90
54178;DHT22;40085;53.004;6.770;2022-08-19T05:24:13;15.30;99.90
54178;DHT22;40085;53.004;6.770;2022-08-19T05:26:41;15.40;99.90
54178;DHT22;40085;53.004;6.770;2022-08-19T05:29:09;15.40;99.90
54178;DHT22;40085;53.004;6.770;2022-08-19T05:31:36;15.50;99.90
54178;DHT22;40085;53.004;6.770;2022-08-19T05:34:02;15.50;99.90
54178;DHT22;40085;53.004;6.770;2022-08-19T05:36:35;15.50;99.90
54178;DHT22;40085;53.004;6.770;2022-08-19T05:39:03;15.60;99.90
54178;DHT22;40085;53.004;6.770;2022-08-19T05:41:29;15.70;99.90
54178;DHT22;40085;53.004;6.770;2022-08-19T05:43:57;15.80;99.90
54178;DHT22;40085;53.004;6.770;2022-08-19T05:46:23;16.00;99.90
54178;DHT22;40085;53.004;6.770;2022-08-19T05:48:50;16.00;99.90
54178;DHT22;40085;53.004;6.770;2022-08-19T05:51:16;16.00;99.90
54178;DHT22;40085;53.004;6.770;2022-08-19T05:53:42;16.00;99.90
54178;DHT22;40085;53.004;6.770;2022-08-19T05:56:15;16.30;99.90
54178;DHT22;40085;53.004;6.770;2022-08-19T05:58:45;16.30;99.90
54178;DHT22;40085;53.004;6.770;2022-08-19T06:01:14;16.30;99.90
54178;DHT22;40085;53.004;6.770;2022-08-19T06:03:40;16.50;99.90
54178;DHT22;40085;53.004;6.770;2022-08-19T06:06:07;16.30;99.90
54178;DHT22;40085;53.004;6.770;2022-08-19T06:08:34;16.60;99.90
54178;DHT22;40085;53.004;6.770;2022-08-19T06:11:19;16.70;99.90
54178;DHT22;40085;53.004;6.770;2022-08-19T06:28:30;17.50;99.90
54178;DHT22;40085;53.004;6.770;2022-08-19T06:30:58;17.40;99.90
54178;DHT22;40085;53.004;6.770;2022-08-19T06:33:24;17.50;99.90
54178;DHT22;40085;53.004;6.770;2022-08-19T06:35:49;17.60;99.90
54178;DHT22;40085;53.004;6.770;2022-08-19T06:38:15;17.80;99.90
54178;DHT22;40085;53.004;6.770;2022-08-19T06:43:07;18.10;99.90
54178;DHT22;40085;53.004;6.770;2022-08-19T06:45:32;18.20;99.90
54178;DHT22;40085;53.004;6.770;2022-08-19T06:47:58;18.40;99.90
54178;DHT22;40085;53.004;6.770;2022-08-19T06:50:24;18.60;99.90
54178;DHT22;40085;53.004;6.770;2022-08-19T06:52:50;18.60;99.90
54178;DHT22;40085;53.004;6.770;2022-08-19T06:55:16;18.80;99.90
54178;DHT22;40085;53.004;6.770;2022-08-19T06:57:42;18.90;99.90
54178;DHT22;40085;53.004;6.770;2022-08-19T07:00:08;18.90;99.90
54178;DHT22;40085;53.004;6.770;2022-08-19T07:02:43;19.10;99.90
54178;DHT22;40085;53.004;6.770;2022-08-19T07:05:09;19.20;99.90
54178;DHT22;40085;53.004;6.770;2022-08-19T07:07:35;19.30;99.90
54178;DHT22;40085;53.004;6.770;2022-08-19T07:10:01;19.40;99.90
54178;DHT22;40085;53.004;6.770;2022-08-19T07:12:31;19.50;99.90
54178;DHT22;40085;53.004;6.770;2022-08-19T07:15:00;19.60;99.90
54178;DHT22;40085;53.004;6.770;2022-08-19T07:17:26;19.70;99.90
54178;DHT22;40085;53.004;6.770;2022-08-19T07:19:52;19.80;99.90
54178;DHT22;40085;53.004;6.770;2022-08-19T07:22:18;19.90;99.90
54178;DHT22;40085;53.004;6.770;2022-08-19T07:24:45;20.00;99.90
54178;DHT22;40085;53.004;6.770;2022-08-19T07:27:13;20.10;99.90
54178;DHT22;40085;53.004;6.770;2022-08-19T07:29:39;20.20;99.90
54178;DHT22;40085;53.004;6.770;2022-08-19T07:32:06;20.30;99.90
54178;DHT22;40085;53.004;6.770;2022-08-19T07:34:32;20.40;99.90
54178;DHT22;40085;53.004;6.770;2022-08-19T07:37:05;20.50;99.90
54178;DHT22;40085;53.004;6.770;2022-08-19T07:39:34;20.60;99.90
54178;DHT22;40085;53.004;6.770;2022-08-19T07:42:03;20.70;99.90
54178;DHT22;40085;53.004;6.770;2022-08-19T07:44:29;20.80;99.90
54178;DHT22;40085;53.004;6.770;2022-08-19T07:46:56;20.90;99.90
54178;DHT22;40085;53.004;6.770;2022-08-19T07:49:23;21.00;99.90
54178;DHT22;40085;53.004;6.770;2022-08-19T07:51:55;21.00;99.90
54178;DHT22;40085;53.004;6.770;2022-08-19T07:54:23;21.10;99.90
54178;DHT22;40085;53.004;6.770;2022-08-19T07:56:49;21.20;99.90
54178;DHT22;40085;53.004;6.770;2022-08-19T07:59:19;21.30;99.90
54178;DHT22;40085;53.004;6.770;2022-08-19T08:01:46;21.50;99.90
54178;DHT22;40085;53.004;6.770;2022-08-19T08:04:12;21.50;99.90
54178;DHT22;40085;53.004;6.770;2022-08-19T08:06:56;21.60;99.90
54178;DHT22;40085;53.004;6.770;2022-08-19T08:09:42;21.70;99.90
54178;DHT22;40085;53.004;6.770;2022-08-19T08:12:22;21.70;99.90
54178;DHT22;40085;53.004;6.770;2022-08-19T08:14:52;21.80;99.90
54178;DHT22;40085;53.004;6.770;2022-08-19T08:17:21;21.90;99.90
54178;DHT22;40085;53.004;6.770;2022-08-19T08:19:48;22.00;99.90
54178;DHT22;40085;53.004;6.770;2022-08-19T08:22:16;22.00;99.90
54178;DHT22;40085;53.004;6.770;2022-08-19T08:25:15;22.10;99.90
54178;DHT22;40085;53.004;6.770;2022-08-19T08:27:43;22.20;99.90
54178;DHT22;40085;53.004;6.770;2022-08-19T08:30:12;22.30;99.90
54178;DHT22;40085;53.004;6.770;2022-08-19T08:32:38;22.30;99.90
54178;DHT22;40085;53.004;6.770;2022-08-19T08:35:06;22.50;99.90
54178;DHT22;40085;53.004;6.770;2022-08-19T08:37:32;22.70;99.90
54178;DHT22;40085;53.004;6.770;2022-08-19T08:39:58;22.60;99.90
54178;DHT22;40085;53.004;6.770;2022-08-19T08:42:34;22.70;99.90
54178;DHT22;40085;53.004;6.770;2022-08-19T08:45:13;22.80;99.90
54178;DHT22;40085;53.004;6.770;2022-08-19T08:47:44;22.90;99.90
54178;DHT22;40085;53.004;6.770;2022-08-19T08:50:22;22.90;99.90
54178;DHT22;40085;53.004;6.770;2022-08-19T08:52:53;23.00;99.90
54178;DHT22;40085;53.004;6.770;2022-08-19T08:55:25;23.10;99.90
54178;DHT22;40085;53.004;6.770;2022-08-19T08:58:05;23.20;99.90
54178;DHT22;40085;53.004;6.770;2022-08-19T09:00:37;23.20;99.90
54178;DHT22;40085;53.004;6.770;2022-08-19T09:03:12;23.30;99.90
54178;DHT22;40085;53.004;6.770;2022-08-19T09:06:00;23.30;99.90
54178;DHT22;40085;53.004;6.770;2022-08-19T09:08:51;23.30;99.90
54178;DHT22;40085;53.004;6.770;2022-08-19T09:14:03;23.40;99.90
54178;DHT22;40085;53.004;6.770;2022-08-19T09:16:30;23.50;99.90
54178;DHT22;40085;53.004;6.770;2022-08-19T09:19:00;23.50;99.90
54178;DHT22;40085;53.004;6.770;2022-08-19T09:21:27;23.50;99.90
54178;DHT22;40085;53.004;6.770;2022-08-19T09:23:53;23.50;99.90
54178;DHT22;40085;53.004;6.770;2022-08-19T09:26:21;23.60;99.90
54178;DHT22;40085;53.004;6.770;2022-08-19T09:28:49;23.60;99.90
54178;DHT22;40085;53.004;6.770;2022-08-19T09:31:18;23.70;99.90
54178;DHT22;40085;53.004;6.770;2022-08-19T09:33:44;23.80;99.90
54178;DHT22;40085;53.004;6.770;2022-08-19T09:36:13;23.80;99.90
54178;DHT22;40085;53.004;6.770;2022-08-19T09:38:39;23.80;99.90
54178;DHT22;40085;53.004;6.770;2022-08-19T09:41:11;23.80;99.90
54178;DHT22;40085;53.004;6.770;2022-08-19T09:43:40;23.80;99.90
54178;DHT22;40085;53.004;6.770;2022-08-19T09:46:07;24.20;99.90
54178;DHT22;40085;53.004;6.770;2022-08-19T09:48:36;23.90;99.90
54178;DHT22;40085;53.004;6.770;2022-08-19T09:53:34;24.10;99.90
54178;DHT22;40085;53.004;6.770;2022-08-19T09:56:00;24.20;99.90
54178;DHT22;40085;53.004;6.770;2022-08-19T09:58:26;24.30;99.90
54178;DHT22;40085;53.004;6.770;2022-08-19T10:00:54;24.40;99.90
54178;DHT22;40085;53.004;6.770;2022-08-19T10:03:20;24.50;99.90
54178;DHT22;40085;53.004;6.770;2022-08-19T10:05:46;24.50;99.90
54178;DHT22;40085;53.004;6.770;2022-08-19T10:08:24;24.60;99.90
54178;DHT22;40085;53.004;6.770;2022-08-19T10:10:51;24.70;99.90
54178;DHT22;40085;53.004;6.770;2022-08-19T10:13:22;24.80;99.90
54178;DHT22;40085;53.004;6.770;2022-08-19T10:15:49;24.90;99.90
54178;DHT22;40085;53.004;6.770;2022-08-19T10:18:20;24.90;99.90
54178;DHT22;40085;53.004;6.770;2022-08-19T10:20:47;25.00;99.90
54178;DHT22;40085;53.004;6.770;2022-08-19T10:23:14;25.10;99.90
54178;DHT22;40085;53.004;6.770;2022-08-19T10:25:41;25.10;99.90
54178;DHT22;40085;53.004;6.770;2022-08-19T10:28:08;25.10;99.90
54178;DHT22;40085;53.004;6.770;2022-08-19T10:30:38;25.20;99.90
54178;DHT22;40085;53.004;6.770;2022-08-19T10:33:04;25.20;99.90
54178;DHT22;40085;53.004;6.770;2022-08-19T10:35:30;25.20;99.90
54178;DHT22;40085;53.004;6.770;2022-08-19T10:37:56;25.30;99.90
54178;DHT22;40085;53.004;6.770;2022-08-19T10:40:27;25.30;99.90
54178;DHT22;40085;53.004;6.770;2022-08-19T10:42:56;25.20;99.90
54178;DHT22;40085;53.004;6.770;2022-08-19T10:45:23;25.30;99.90
54178;DHT22;40085;53.004;6.770;2022-08-19T10:47:55;25.40;99.90
54178;DHT22;40085;53.004;6.770;2022-08-19T10:50:21;25.40;99.90
54178;DHT22;40085;53.004;6.770;2022-08-19T10:53:07;25.30;99.90
54178;DHT22;40085;53.004;6.770;2022-08-19T10:55:36;25.20;99.90
54178;DHT22;40085;53.004;6.770;2022-08-19T10:58:21;25.20;99.90
54178;DHT22;40085;53.004;6.770;2022-08-19T11:00:57;25.30;99.90
54178;DHT22;40085;53.004;6.770;2022-08-19T11:03:24;25.40;99.90
54178;DHT22;40085;53.004;6.770;2022-08-19T11:06:05;25.50;99.90
54178;DHT22;40085;53.004;6.770;2022-08-19T11:08:31;25.60;99.90
54178;DHT22;40085;53.004;6.770;2022-08-19T11:10:59;25.80;99.90
54178;DHT22;40085;53.004;6.770;2022-08-19T11:13:30;25.90;99.90
54178;DHT22;40085;53.004;6.770;2022-08-19T11:16:08;25.90;99.90
54178;DHT22;40085;53.004;6.770;2022-08-19T11:18:36;26.10;99.90
54178;DHT22;40085;53.004;6.770;2022-08-19T11:21:18;26.20;99.90
54178;DHT22;40085;53.004;6.770;2022-08-19T11:23:45;26.10;99.90
54178;DHT22;40085;53.004;6.770;2022-08-19T11:26:13;25.90;99.90
54178;DHT22;40085;53.004;6.770;2022-08-19T11:28:39;25.70;99.90
54178;DHT22;40085;53.004;6.770;2022-08-19T11:31:11;25.50;99.90
54178;DHT22;40085;53.004;6.770;2022-08-19T11:33:37;25.20;99.90
54178;DHT22;40085;53.004;6.770;2022-08-19T11:36:02;25.20;99.90
54178;DHT22;40085;53.004;6.770;2022-08-19T11:38:28;25.30;99.90
54178;DHT22;40085;53.004;6.770;2022-08-19T11:41:00;25.40;99.90
54178;DHT22;40085;53.004;6.770;2022-08-19T11:43:27;25.60;99.90
54178;DHT22;40085;53.004;6.770;2022-08-19T11:45:56;25.70;99.90
54178;DHT22;40085;53.004;6.770;2022-08-19T11:48:23;25.80;99.90
54178;DHT22;40085;53.004;6.770;2022-08-19T11:50:50;26.00;99.90
54178;DHT22;40085;53.004;6.770;2022-08-19T11:53:17;26.00;99.90
54178;DHT22;40085;53.004;6.770;2022-08-19T11:55:44;26.10;99.90
54178;DHT22;40085;53.004;6.770;2022-08-19T11:58:12;26.30;99.90
54178;DHT22;40085;53.004;6.770;2022-08-19T12:00:39;26.50;99.90
54178;DHT22;40085;53.004;6.770;2022-08-19T12:03:05;26.80;99.90
54178;DHT22;40085;53.004;6.770;2022-08-19T12:05:31;26.80;99.90
54178;DHT22;40085;53.004;6.770;2022-08-19T12:07:57;26.90;99.90
54178;DHT22;40085;53.004;6.770;2022-08-19T12:10:23;27.00;99.90
54178;DHT22;40085;53.004;6.770;2022-08-19T12:12:49;27.10;99.90
54178;DHT22;40085;53.004;6.770;2022-08-19T12:15:14;27.00;99.90
54178;DHT22;40085;53.004;6.770;2022-08-19T12:17:41;27.10;99.90
54178;DHT22;40085;53.004;6.770;2022-08-19T12:20:09;27.20;99.90
54178;DHT22;40085;53.004;6.770;2022-08-19T12:22:39;27.30;99.90
54178;DHT22;40085;53.004;6.770;2022-08-19T12:25:10;27.40;99.90
54178;DHT22;40085;53.004;6.770;2022-08-19T12:27:37;27.20;99.90
54178;DHT22;40085;53.004;6.770;2022-08-19T12:30:04;27.10;99.90
54178;DHT22;40085;53.004;6.770;2022-08-19T12:32:30;27.10;99.90
54178;DHT22;40085;53.004;6.770;2022-08-19T12:34:56;27.20;99.90
54178;DHT22;40085;53.004;6.770;2022-08-19T12:37:21;27.30;99.90
54178;DHT22;40085;53.004;6.770;2022-08-19T12:39:48;27.20;99.90
54178;DHT22;40085;53.004;6.770;2022-08-19T12:42:14;27.10;99.90
54178;DHT22;40085;53.004;6.770;2022-08-19T12:44:42;27.00;99.90
54178;DHT22;40085;53.004;6.770;2022-08-19T12:47:10;26.80;99.90
54178;DHT22;40085;53.004;6.770;2022-08-19T12:49:37;26.60;99.90
54178;DHT22;40085;53.004;6.770;2022-08-19T12:52:06;26.60;99.90
54178;DHT22;40085;53.004;6.770;2022-08-19T12:54:34;26.50;99.90
54178;DHT22;40085;53.004;6.770;2022-08-19T12:57:00;26.40;99.90
54178;DHT22;40085;53.004;6.770;2022-08-19T12:59:26;26.30;99.90
54178;DHT22;40085;53.004;6.770;2022-08-19T13:01:52;26.30;99.90
54178;DHT22;40085;53.004;6.770;2022-08-19T13:04:18;26.30;99.90
54178;DHT22;40085;53.004;6.770;2022-08-19T13:06:44;26.40;99.90
54178;DHT22;40085;53.004;6.770;2022-08-19T13:09:10;26.40;99.90
54178;DHT22;40085;53.004;6.770;2022-08-19T13:11:36;26.50;99.90
54178;DHT22;40085;53.004;6.770;2022-08-19T13:14:03;26.60;99.90
54178;DHT22;40085;53.004;6.770;2022-08-19T13:16:29;26.60;99.90
54178;DHT22;40085;53.004;6.770;2022-08-19T13:18:56;26.70;99.90
54178;DHT22;40085;53.004;6.770;2022-08-19T13:21:24;26.80;99.90
54178;DHT22;40085;53.004;6.770;2022-08-19T13:23:51;26.80;99.90
54178;DHT22;40085;53.004;6.770;2022-08-19T13:26:17;26.80;99.90
54178;DHT22;40085;53.004;6.770;2022-08-19T13:28:44;26.70;97.80
54178;DHT22;40085;53.004;6.770;2022-08-19T13:31:31;26.60;99.60
54178;DHT22;40085;53.004;6.770;2022-08-19T13:34:18;26.70;99.90
54178;DHT22;40085;53.004;6.770;2022-08-19T13:36:45;26.70;99.90
54178;DHT22;40085;53.004;6.770;2022-08-19T13:39:11;26.70;99.90
54178;DHT22;40085;53.004;6.770;2022-08-19T13:41:37;26.80;99.90
54178;DHT22;40085;53.004;6.770;2022-08-19T13:44:04;26.70;99.00
54178;DHT22;40085;53.004;6.770;2022-08-19T13:46:31;26.80;99.40
54178;DHT22;40085;53.004;6.770;2022-08-19T13:48:57;26.80;99.90
54178;DHT22;40085;53.004;6.770;2022-08-19T13:51:23;26.90;99.90
54178;DHT22;40085;53.004;6.770;2022-08-19T13:53:49;26.90;99.90
54178;DHT22;40085;53.004;6.770;2022-08-19T13:56:17;26.80;99.70
54178;DHT22;40085;53.004;6.770;2022-08-19T13:58:45;26.80;99.00
54178;DHT22;40085;53.004;6.770;2022-08-19T14:01:11;26.70;98.70
54178;DHT22;40085;53.004;6.770;2022-08-19T14:03:38;26.70;99.30
54178;DHT22;40085;53.004;6.770;2022-08-19T14:06:04;26.70;98.70
54178;DHT22;40085;53.004;6.770;2022-08-19T14:08:29;26.70;98.80
54178;DHT22;40085;53.004;6.770;2022-08-19T14:10:57;26.70;98.00
54178;DHT22;40085;53.004;6.770;2022-08-19T14:13:24;26.60;97.60
54178;DHT22;40085;53.004;6.770;2022-08-19T14:15:50;26.30;99.90
54178;DHT22;40085;53.004;6.770;2022-08-19T14:20:43;25.80;99.90
54178;DHT22;40085;53.004;6.770;2022-08-19T14:23:10;25.50;99.90
54178;DHT22;40085;53.004;6.770;2022-08-19T14:25:37;25.40;99.90
54178;DHT22;40085;53.004;6.770;2022-08-19T14:28:03;25.10;99.90
54178;DHT22;40085;53.004;6.770;2022-08-19T14:30:32;25.00;99.90
54178;DHT22;40085;53.004;6.770;2022-08-19T14:32:59;24.90;99.90
54178;DHT22;40085;53.004;6.770;2022-08-19T14:35:27;24.70;99.90
54178;DHT22;40085;53.004;6.770;2022-08-19T14:37:55;24.60;99.90
54178;DHT22;40085;53.004;6.770;2022-08-19T14:40:24;24.60;99.90
54178;DHT22;40085;53.004;6.770;2022-08-19T14:42:52;24.50;99.90
54178;DHT22;40085;53.004;6.770;2022-08-19T14:45:21;24.50;99.90
54178;DHT22;40085;53.004;6.770;2022-08-19T14:47:47;24.40;99.90
54178;DHT22;40085;53.004;6.770;2022-08-19T14:50:12;24.40;99.90
54178;DHT22;40085;53.004;6.770;2022-08-19T14:52:39;24.40;99.90
54178;DHT22;40085;53.004;6.770;2022-08-19T14:55:06;24.30;99.90
54178;DHT22;40085;53.004;6.770;2022-08-19T14:57:32;24.40;99.90
54178;DHT22;40085;53.004;6.770;2022-08-19T14:59:58;24.40;99.90
54178;DHT22;40085;53.004;6.770;2022-08-19T15:02:24;24.50;99.90
54178;DHT22;40085;53.004;6.770;2022-08-19T15:04:50;24.50;99.90
54178;DHT22;40085;53.004;6.770;2022-08-19T15:07:16;24.60;99.90
54178;DHT22;40085;53.004;6.770;2022-08-19T15:09:42;24.60;99.90
54178;DHT22;40085;53.004;6.770;2022-08-19T15:12:08;24.70;99.90
54178;DHT22;40085;53.004;6.770;2022-08-19T15:14:36;24.70;99.90
54178;DHT22;40085;53.004;6.770;2022-08-19T15:17:04;24.80;99.90
54178;DHT22;40085;53.004;6.770;2022-08-19T15:19:31;24.70;99.90
54178;DHT22;40085;53.004;6.770;2022-08-19T15:21:58;24.70;99.90
54178;DHT22;40085;53.004;6.770;2022-08-19T15:24:24;24.60;99.90
54178;DHT22;40085;53.004;6.770;2022-08-19T15:26:52;24.60;99.90
54178;DHT22;40085;53.004;6.770;2022-08-19T15:29:18;24.50;99.90
54178;DHT22;40085;53.004;6.770;2022-08-19T15:31:44;24.50;99.90
54178;DHT22;40085;53.004;6.770;2022-08-19T15:34:10;24.50;99.90
54178;DHT22;40085;53.004;6.770;2022-08-19T15:36:36;24.40;99.90
54178;DHT22;40085;53.004;6.770;2022-08-19T15:39:03;24.40;99.90
54178;DHT22;40085;53.004;6.770;2022-08-19T15:41:31;24.40;99.90
54178;DHT22;40085;53.004;6.770;2022-08-19T15:44:03;24.50;99.90
54178;DHT22;40085;53.004;6.770;2022-08-19T15:46:31;24.90;99.90
54178;DHT22;40085;53.004;6.770;2022-08-19T15:48:58;25.40;99.90
54178;DHT22;40085;53.004;6.770;2022-08-19T15:51:24;25.60;99.90
54178;DHT22;40085;53.004;6.770;2022-08-19T15:53:51;25.60;99.90
54178;DHT22;40085;53.004;6.770;2022-08-19T15:56:17;25.50;99.90
54178;DHT22;40085;53.004;6.770;2022-08-19T15:58:43;25.40;99.90
54178;DHT22;40085;53.004;6.770;2022-08-19T16:01:28;25.30;99.90
54178;DHT22;40085;53.004;6.770;2022-08-19T16:04:14;25.20;99.90